createdAt,value
2023-03-24T00:01:26.546Z,1.30
2023-03-24T00:03:54.486Z,1.00
2023-03-24T00:06:26.721Z,1.10
2023-03-24T00:08:54.979Z,1.80
2023-03-24T00:11:23.182Z,1.30
2023-03-24T00:13:51.086Z,1.90
2023-03-24T00:16:20.123Z,2.10
2023-03-24T00:18:53.907Z,2.30
2023-03-24T00:21:25.792Z,2.70
2023-03-24T00:23:58.538Z,2.40
2023-03-24T00:26:27.431Z,2.70
2023-03-24T00:28:55.783Z,2.80
2023-03-24T00:31:25.414Z,2.80
2023-03-24T00:33:54.784Z,2.90
2023-03-24T00:36:26.423Z,2.20
2023-03-24T00:38:54.689Z,2.10
2023-03-24T00:41:24.978Z,2.50
2023-03-24T00:43:58.678Z,2.50
2023-03-24T00:46:30.113Z,2.50
2023-03-24T00:49:12.055Z,2.50
2023-03-24T00:51:42.405Z,2.40
2023-03-24T00:54:14.144Z,2.90
2023-03-24T00:56:43.637Z,2.70
2023-03-24T00:59:14.303Z,2.50
2023-03-24T01:01:43.620Z,2.40
2023-03-24T01:04:11.551Z,2.30
2023-03-24T01:06:41.204Z,2.60
2023-03-24T01:09:10.712Z,2.90
2023-03-24T01:11:41.624Z,2.90
2023-03-24T01:14:12.124Z,2.90
2023-03-24T01:16:40.961Z,3.00
2023-03-24T01:19:13.238Z,3.10
2023-03-24T01:21:42.362Z,3.20
2023-03-24T01:24:10.668Z,4.60
2023-03-24T01:26:38.597Z,3.80
2023-03-24T01:29:06.459Z,3.80
2023-03-24T01:31:35.011Z,3.70
2023-03-24T01:34:04.180Z,3.70
2023-03-24T01:36:32.211Z,3.80
2023-03-24T01:39:01.496Z,3.90
2023-03-24T01:41:37.749Z,3.90
2023-03-24T01:44:34.845Z,4.00
2023-03-24T01:47:07.465Z,3.50
2023-03-24T01:49:42.962Z,4.10
2023-03-24T01:52:29.926Z,3.90
2023-03-24T01:55:08.076Z,4.10
2023-03-24T01:57:42.411Z,4.50
2023-03-24T02:00:15.054Z,4.50
2023-03-24T02:02:49.648Z,4.20
2023-03-24T02:05:17.955Z,4.00
2023-03-24T02:08:03.645Z,4.30
2023-03-24T02:10:35.272Z,4.30
2023-03-24T02:13:04.698Z,4.00
2023-03-24T02:15:39.298Z,4.30
2023-03-24T02:18:21.674Z,4.40
2023-03-24T02:21:07.832Z,3.90
2023-03-24T02:23:58.054Z,4.40
2023-03-24T02:26:47.566Z,4.30
2023-03-24T02:30:04.597Z,4.10
2023-03-24T02:33:29.093Z,3.50
2023-03-24T02:36:21.870Z,4.10
2023-03-24T02:39:19.456Z,4.30
2023-03-24T02:42:32.234Z,4.60
2023-03-24T02:45:24.741Z,5.00
2023-03-24T02:48:17.013Z,5.10
2023-03-24T02:51:13.505Z,4.90
2023-03-24T02:54:07.424Z,3.80
2023-03-24T02:56:49.443Z,5.40
2023-03-24T02:59:39.412Z,3.90
2023-03-24T03:02:18.238Z,4.50
2023-03-24T03:04:54.489Z,4.40
2023-03-24T03:07:27.445Z,5.40
2023-03-24T03:10:11.422Z,4.60
2023-03-24T03:12:41.409Z,4.50
2023-03-24T03:15:19.644Z,4.20
2023-03-24T03:18:10.621Z,4.50
2023-03-24T03:20:50.850Z,4.40
2023-03-24T03:23:29.284Z,3.00
2023-03-24T03:26:24.181Z,4.80
2023-03-24T03:29:00.162Z,4.90
2023-03-24T03:31:35.809Z,4.20
2023-03-24T03:35:01.601Z,4.40
2023-03-24T03:38:03.538Z,4.00
2023-03-24T03:40:51.482Z,5.10
2023-03-24T03:43:19.759Z,5.30
2023-03-24T03:45:48.095Z,4.60
2023-03-24T03:48:18.237Z,5.50
2023-03-24T03:50:47.037Z,5.40
2023-03-24T03:53:19.296Z,5.90
2023-03-24T03:55:47.535Z,5.40
2023-03-24T03:58:15.854Z,5.80
2023-03-24T04:00:46.918Z,5.30
2023-03-24T04:03:37.221Z,5.50
2023-03-24T04:06:29.255Z,5.40
2023-03-24T04:09:32.009Z,5.20
2023-03-24T04:12:33.898Z,5.00
2023-03-24T04:15:33.981Z,5.50
2023-03-24T04:18:40.404Z,5.70
2023-03-24T04:21:48.802Z,5.60
2023-03-24T04:24:50.045Z,5.30
2023-03-24T04:27:52.018Z,5.30
2023-03-24T04:30:40.067Z,5.40
2023-03-24T04:33:22.435Z,5.60
2023-03-24T04:36:06.679Z,5.60
2023-03-24T04:38:38.448Z,5.20
2023-03-24T04:41:07.930Z,5.20
2023-03-24T04:43:36.938Z,5.30
2023-03-24T04:46:09.570Z,4.60
2023-03-24T04:48:37.478Z,4.50
2023-03-24T04:51:06.145Z,4.50
2023-03-24T04:53:33.956Z,4.80
2023-03-24T04:56:30.461Z,4.80
2023-03-24T04:58:58.799Z,2.40
2023-03-24T05:01:31.104Z,4.40
2023-03-24T05:04:00.013Z,4.60
2023-03-24T05:06:28.220Z,5.10
2023-03-24T05:08:58.921Z,5.00
2023-03-24T05:11:27.846Z,4.80
2023-03-24T05:13:55.907Z,5.20
2023-03-24T05:16:23.656Z,5.00
2023-03-24T05:18:51.486Z,5.70
2023-03-24T05:21:20.792Z,5.00
2023-03-24T05:23:48.685Z,5.20
2023-03-24T05:26:16.525Z,5.20
2023-03-24T05:28:44.338Z,5.70
2023-03-24T05:31:12.300Z,5.60
2023-03-24T05:33:40.618Z,5.90
2023-03-24T05:36:09.220Z,5.50
2023-03-24T05:38:37.271Z,5.50
2023-03-24T05:41:06.280Z,5.00
2023-03-24T05:43:34.232Z,4.20
2023-03-24T05:46:02.289Z,4.80
2023-03-24T05:48:30.273Z,4.40
2023-03-24T05:50:58.068Z,5.10
2023-03-24T05:53:25.889Z,4.70
2023-03-24T05:55:53.810Z,4.20
2023-03-24T05:58:21.638Z,4.10
2023-03-24T06:00:49.590Z,3.50
2023-03-24T06:03:17.718Z,4.10
2023-03-24T06:05:47.850Z,4.10
2023-03-24T06:08:17.014Z,3.80
2023-03-24T06:10:45.151Z,4.30
2023-03-24T06:13:12.908Z,3.80
2023-03-24T06:15:43.086Z,2.90
2023-03-24T06:18:14.344Z,4.10
2023-03-24T06:20:44.964Z,4.30
2023-03-24T06:23:12.887Z,3.60
2023-03-24T06:25:44.662Z,4.70
2023-03-24T06:28:14.432Z,3.60
2023-03-24T06:30:47.060Z,4.40
2023-03-24T06:33:16.436Z,4.20
2023-03-24T06:35:44.573Z,5.00
2023-03-24T06:38:13.108Z,4.60
2023-03-24T06:40:41.213Z,4.00
2023-03-24T06:43:09.007Z,4.90
2023-03-24T06:45:39.590Z,4.60
2023-03-24T06:48:07.513Z,4.80
2023-03-24T06:50:35.852Z,4.30
2023-03-24T06:53:03.680Z,4.60
2023-03-24T06:55:31.766Z,5.00
2023-03-24T06:57:59.551Z,5.40
2023-03-24T07:00:29.474Z,4.90
2023-03-24T07:02:57.383Z,5.10
2023-03-24T07:05:25.419Z,5.30
2023-03-24T07:08:28.031Z,5.60
2023-03-24T07:10:41.695Z,3.90
2023-03-24T07:13:09.858Z,5.20
2023-03-24T07:15:37.691Z,5.00
2023-03-24T07:18:05.696Z,5.00
2023-03-24T07:20:33.706Z,4.90
2023-03-24T07:23:01.712Z,5.00
2023-03-24T07:25:29.710Z,5.20
2023-03-24T07:27:57.709Z,5.20
2023-03-24T07:30:37.304Z,5.50
2023-03-24T07:33:12.785Z,5.10
2023-03-24T07:35:41.161Z,4.40
2023-03-24T07:38:10.831Z,4.30
2023-03-24T07:40:39.067Z,5.40
2023-03-24T07:43:06.902Z,5.90
2023-03-24T07:45:34.951Z,6.40
2023-03-24T07:48:03.233Z,5.90
2023-03-24T07:50:32.051Z,5.20
2023-03-24T07:53:00.406Z,4.80
2023-03-24T07:55:28.399Z,4.60
2023-03-24T07:57:56.269Z,4.70
2023-03-24T08:00:25.299Z,4.10
2023-03-24T08:02:54.147Z,3.10
2023-03-24T08:05:23.606Z,4.20
2023-03-24T08:07:56.097Z,3.00
2023-03-24T08:10:30.759Z,3.50
2023-03-24T08:12:59.532Z,3.60
2023-03-24T08:15:28.844Z,4.10
2023-03-24T08:17:57.256Z,4.10
2023-03-24T08:20:27.383Z,2.90
2023-03-24T08:22:56.826Z,3.50
2023-03-24T08:25:26.927Z,3.10
2023-03-24T08:27:54.943Z,2.80
2023-03-24T08:30:26.245Z,4.10
2023-03-24T08:33:00.488Z,4.40
2023-03-24T08:35:38.822Z,5.50
2023-03-24T08:38:09.759Z,5.40
2023-03-24T08:40:42.082Z,4.70
2023-03-24T08:43:15.716Z,6.00
2023-03-24T08:45:43.673Z,6.70
2023-03-24T08:48:11.490Z,5.90
2023-03-24T08:50:42.033Z,4.20
2023-03-24T08:53:12.540Z,6.00
2023-03-24T08:55:43.375Z,5.40
2023-03-24T08:58:21.087Z,6.90
2023-03-24T09:00:49.725Z,7.10
2023-03-24T09:03:22.692Z,4.60
2023-03-24T09:05:51.397Z,4.60
2023-03-24T09:08:19.945Z,4.30
2023-03-24T09:10:48.313Z,4.40
2023-03-24T09:13:17.109Z,4.60
2023-03-24T09:15:51.733Z,3.70
2023-03-24T09:18:22.068Z,4.50
2023-03-24T09:20:51.233Z,4.70
2023-03-24T09:23:20.269Z,4.10
2023-03-24T09:25:54.238Z,3.50
2023-03-24T09:28:22.624Z,4.30
2023-03-24T09:30:51.327Z,5.00
2023-03-24T09:33:19.350Z,4.50
2023-03-24T09:36:00.034Z,4.80
2023-03-24T09:38:29.855Z,5.20
2023-03-24T09:41:03.318Z,3.80
2023-03-24T09:43:41.945Z,5.60
2023-03-24T09:46:30.565Z,5.00
2023-03-24T09:48:58.623Z,4.20
2023-03-24T09:51:38.511Z,5.10
2023-03-24T09:54:31.529Z,4.60
2023-03-24T09:57:00.401Z,4.20
2023-03-24T09:59:41.324Z,3.80
2023-03-24T10:02:19.603Z,4.10
2023-03-24T10:04:49.214Z,3.90
2023-03-24T10:07:32.559Z,4.20
2023-03-24T10:10:01.689Z,6.50
2023-03-24T10:12:48.488Z,4.30
2023-03-24T10:15:41.262Z,4.10
2023-03-24T10:18:22.995Z,5.60
2023-03-24T10:20:59.839Z,6.20
2023-03-24T10:23:45.669Z,5.40
2023-03-24T10:27:01.063Z,4.50
2023-03-24T10:29:34.789Z,3.90
2023-03-24T10:32:12.281Z,5.60
2023-03-24T10:34:46.076Z,3.90
2023-03-24T10:37:16.445Z,5.90
2023-03-24T10:39:45.388Z,3.90
2023-03-24T10:42:22.166Z,3.80
2023-03-24T10:44:52.747Z,4.70
2023-03-24T10:47:27.384Z,6.10
2023-03-24T10:50:12.345Z,6.30
2023-03-24T10:52:48.851Z,4.80
2023-03-24T10:55:24.594Z,4.10
2023-03-24T10:57:59.194Z,4.80
2023-03-24T11:00:32.932Z,4.10
2023-03-24T11:03:06.889Z,4.30
2023-03-24T11:05:38.959Z,3.30
2023-03-24T11:08:31.930Z,5.30
2023-03-24T11:11:00.305Z,6.30
2023-03-24T11:13:31.974Z,3.70
2023-03-24T11:16:10.349Z,3.00
2023-03-24T11:18:38.731Z,3.10
2023-03-24T11:21:08.360Z,3.90
2023-03-24T11:23:45.206Z,3.60
2023-03-24T11:26:23.478Z,3.50
2023-03-24T11:28:58.657Z,3.50
2023-03-24T11:31:38.559Z,3.10
2023-03-24T11:34:24.452Z,4.50
2023-03-24T11:36:57.762Z,3.50
2023-03-24T11:39:29.188Z,7.20
2023-03-24T11:42:10.622Z,4.10
2023-03-24T11:44:38.559Z,3.20
2023-03-24T11:47:33.207Z,3.60
2023-03-24T11:50:10.191Z,2.90
2023-03-24T11:52:42.941Z,2.80
2023-03-24T11:55:29.351Z,2.60
2023-03-24T11:58:12.887Z,3.00
2023-03-24T12:00:49.787Z,3.60
2023-03-24T12:03:45.593Z,2.70
2023-03-24T12:07:02.756Z,2.10
2023-03-24T12:10:03.228Z,3.30
2023-03-24T12:13:07.221Z,2.80
2023-03-24T12:16:06.476Z,2.00
2023-03-24T12:19:05.732Z,3.00
2023-03-24T12:21:51.860Z,2.80
2023-03-24T12:25:04.940Z,2.20
2023-03-24T12:28:09.031Z,2.10
2023-03-24T12:31:28.950Z,2.90
2023-03-24T12:34:42.568Z,2.40
2023-03-24T12:37:45.003Z,2.90
2023-03-24T12:41:03.535Z,2.10
2023-03-24T12:43:48.116Z,2.60
2023-03-24T12:46:48.151Z,2.60
2023-03-24T12:49:42.915Z,2.10
2023-03-24T12:52:43.947Z,2.50
2023-03-24T12:55:25.987Z,1.70
2023-03-24T12:58:06.365Z,2.30
2023-03-24T13:01:05.720Z,2.70
2023-03-24T13:03:45.498Z,2.60
2023-03-24T13:06:33.477Z,1.70
2023-03-24T13:09:36.253Z,1.80
2023-03-24T13:12:15.225Z,1.70
2023-03-24T13:15:00.323Z,2.10
2023-03-24T13:17:33.067Z,1.70
2023-03-24T13:20:07.156Z,2.10
2023-03-24T13:22:38.385Z,2.50
2023-03-24T13:25:31.449Z,2.50
2023-03-24T13:28:07.881Z,2.80
2023-03-24T13:30:41.513Z,2.60
2023-03-24T13:33:34.098Z,2.10
2023-03-24T13:36:39.418Z,2.10
2023-03-24T13:39:16.332Z,2.00
2023-03-24T13:41:51.927Z,2.20
2023-03-24T13:44:44.493Z,2.70
2023-03-24T13:47:18.617Z,2.20
2023-03-24T13:50:07.152Z,2.50
2023-03-24T13:52:46.024Z,2.00
2023-03-24T13:55:22.586Z,1.80
2023-03-24T13:58:11.723Z,1.50
2023-03-24T14:01:11.128Z,2.20
2023-03-24T14:03:45.635Z,2.50
2023-03-24T14:06:17.996Z,2.00
2023-03-24T14:08:52.091Z,1.40
2023-03-24T14:11:32.420Z,2.30
2023-03-24T14:14:18.260Z,1.80
2023-03-24T14:17:12.147Z,1.70
2023-03-24T14:19:42.909Z,1.40
2023-03-24T14:22:30.525Z,1.60
2023-03-24T14:25:25.542Z,1.60
2023-03-24T14:28:11.683Z,2.00
2023-03-24T14:31:02.159Z,2.20
2023-03-24T14:33:30.668Z,1.70
2023-03-24T14:36:12.274Z,2.10
2023-03-24T14:38:45.155Z,1.70
2023-03-24T14:41:17.108Z,1.80
2023-03-24T14:43:44.805Z,1.80
2023-03-24T14:46:21.765Z,1.40
2023-03-24T14:49:16.609Z,2.20
2023-03-24T14:52:11.245Z,1.40
2023-03-24T14:54:46.092Z,1.60
2023-03-24T14:57:34.625Z,1.30
2023-03-24T15:00:28.840Z,1.50
2023-03-24T15:03:54.183Z,1.70
2023-03-24T15:06:23.878Z,1.60
2023-03-24T15:09:07.744Z,1.40
2023-03-24T15:11:40.174Z,1.40
2023-03-24T15:14:27.001Z,1.00
2023-03-24T15:17:21.948Z,1.30
2023-03-24T15:19:53.873Z,1.40
2023-03-24T15:22:21.794Z,1.50
2023-03-24T15:24:52.228Z,1.80
2023-03-24T15:27:26.729Z,1.60
2023-03-24T15:30:00.368Z,1.70
2023-03-24T15:32:33.080Z,1.60
2023-03-24T15:35:06.202Z,1.30
2023-03-24T15:37:43.172Z,1.70
2023-03-24T15:40:26.298Z,1.20
2023-03-24T15:43:02.289Z,1.50
2023-03-24T15:45:48.293Z,1.40
2023-03-24T15:48:24.439Z,1.70
2023-03-24T15:51:06.446Z,1.60
2023-03-24T15:53:49.636Z,1.20
2023-03-24T15:56:31.870Z,1.40
2023-03-24T15:59:11.984Z,1.10
2023-03-24T16:01:44.869Z,1.50
2023-03-24T16:04:20.786Z,0.50
2023-03-24T16:06:54.188Z,0.60
2023-03-24T16:09:27.502Z,0.90
2023-03-24T16:11:56.124Z,0.80
2023-03-24T16:14:26.940Z,0.70
2023-03-24T16:17:02.265Z,0.80
2023-03-24T16:19:30.835Z,0.80
2023-03-24T16:21:58.839Z,0.80
2023-03-24T16:24:26.649Z,0.70
2023-03-24T16:26:54.517Z,0.90
2023-03-24T16:29:24.120Z,0.80
2023-03-24T16:31:56.480Z,0.60
2023-03-24T16:34:24.735Z,1.10
2023-03-24T16:36:54.752Z,1.20
2023-03-24T16:39:27.290Z,1.20
2023-03-24T16:41:57.534Z,1.10
2023-03-24T16:44:26.735Z,1.40
2023-03-24T16:46:55.617Z,1.50
2023-03-24T16:49:24.836Z,1.90
2023-03-24T16:51:53.952Z,1.30
2023-03-24T16:54:21.917Z,1.30
2023-03-24T16:56:49.805Z,1.40
2023-03-24T16:59:17.710Z,1.70
2023-03-24T17:01:46.588Z,1.60
2023-03-24T17:04:19.484Z,1.50
2023-03-24T17:06:55.041Z,1.70
2023-03-24T17:09:23.808Z,1.90
2023-03-24T17:11:56.165Z,2.20
2023-03-24T17:14:24.560Z,2.20
2023-03-24T17:16:53.706Z,2.00
2023-03-24T17:19:23.747Z,2.20
2023-03-24T17:22:02.596Z,1.90
2023-03-24T17:24:36.043Z,1.50
2023-03-24T17:27:11.230Z,1.80
2023-03-24T17:29:39.063Z,1.70
2023-03-24T17:32:06.761Z,1.60
2023-03-24T17:34:34.666Z,1.30
2023-03-24T17:37:02.816Z,1.10
2023-03-24T17:39:30.690Z,1.50
2023-03-24T17:42:01.418Z,1.40
2023-03-24T17:44:29.289Z,1.80
2023-03-24T17:46:57.241Z,1.40
2023-03-24T17:49:25.391Z,2.10
2023-03-24T17:51:53.501Z,1.60
2023-03-24T17:54:22.338Z,2.10
2023-03-24T17:56:50.089Z,1.90
2023-03-24T17:59:17.970Z,2.20
2023-03-24T18:01:47.302Z,2.70
2023-03-24T18:04:15.518Z,2.50
2023-03-24T18:06:44.270Z,2.60
2023-03-24T18:09:12.230Z,2.30
2023-03-24T18:11:40.199Z,3.00
2023-03-24T18:14:09.405Z,3.10
2023-03-24T18:16:39.428Z,3.30
2023-03-24T18:19:08.561Z,3.80
2023-03-24T18:21:38.386Z,3.80
2023-03-24T18:24:07.754Z,3.80
2023-03-24T18:26:35.521Z,3.70
2023-03-24T18:29:04.001Z,2.60
2023-03-24T18:31:32.837Z,2.40
2023-03-24T18:34:01.239Z,1.70
2023-03-24T18:36:29.116Z,2.10
2023-03-24T18:39:04.519Z,1.90
2023-03-24T18:41:37.008Z,2.60
2023-03-24T18:44:12.421Z,2.30
2023-03-24T18:46:40.591Z,2.50
2023-03-24T18:49:14.586Z,2.90
2023-03-24T18:51:43.631Z,2.70
2023-03-24T18:54:13.171Z,2.80
2023-03-24T18:56:41.929Z,2.00
2023-03-24T18:59:11.698Z,2.80
2023-03-24T19:01:39.681Z,2.50
2023-03-24T19:04:09.483Z,2.60
2023-03-24T19:06:37.413Z,2.40
2023-03-24T19:09:05.497Z,2.20
2023-03-24T19:11:33.289Z,2.70
2023-03-24T19:14:01.754Z,2.90
2023-03-24T19:16:29.673Z,2.80
2023-03-24T19:18:58.078Z,3.10
2023-03-24T19:21:27.741Z,3.00
2023-03-24T19:23:57.184Z,3.30
2023-03-24T19:26:26.125Z,3.50
2023-03-24T19:28:53.922Z,4.30
2023-03-24T19:31:21.794Z,3.20
2023-03-24T19:33:51.625Z,3.60
2023-03-24T19:36:20.040Z,3.50
2023-03-24T19:38:47.826Z,3.80
2023-03-24T19:41:16.499Z,3.70
2023-03-24T19:43:44.448Z,4.40
2023-03-24T19:46:12.367Z,3.30
2023-03-24T19:48:40.710Z,3.00
2023-03-24T19:51:08.626Z,3.20
2023-03-24T19:53:36.664Z,3.60
2023-03-24T19:56:04.936Z,3.70
2023-03-24T19:58:32.726Z,3.30
2023-03-24T20:01:00.609Z,3.70
2023-03-24T20:03:28.962Z,3.50
2023-03-24T20:05:56.905Z,3.30
2023-03-24T20:08:26.186Z,2.90
2023-03-24T20:10:53.938Z,3.10
2023-03-24T20:13:24.220Z,3.50
2023-03-24T20:15:52.379Z,2.60
2023-03-24T20:18:20.672Z,2.80
2023-03-24T20:20:48.421Z,3.30
2023-03-24T20:23:16.190Z,3.60
2023-03-24T20:25:44.040Z,3.30
2023-03-24T20:28:11.903Z,3.30
2023-03-24T20:30:40.463Z,2.80
2023-03-24T20:33:08.529Z,3.00
2023-03-24T20:35:36.826Z,3.30
2023-03-24T20:38:04.828Z,4.00
2023-03-24T20:40:32.806Z,3.40
2023-03-24T20:43:01.008Z,3.20
2023-03-24T20:45:29.085Z,3.20
2023-03-24T20:47:57.138Z,3.40
2023-03-24T20:50:28.005Z,3.80
2023-03-24T20:52:55.956Z,4.00
2023-03-24T20:55:23.879Z,3.40
2023-03-24T20:57:51.768Z,3.90
2023-03-24T21:00:20.117Z,3.10
2023-03-24T21:02:47.961Z,3.20
2023-03-24T21:05:16.069Z,3.10
2023-03-24T21:07:45.687Z,3.20
2023-03-24T21:10:14.551Z,2.90
2023-03-24T21:12:52.694Z,3.00
2023-03-24T21:15:25.206Z,3.40
2023-03-24T21:17:54.160Z,3.20
2023-03-24T21:20:22.591Z,3.60
2023-03-24T21:22:56.432Z,4.00
2023-03-24T21:25:28.292Z,4.30
2023-03-24T21:27:57.628Z,3.90
2023-03-24T21:30:27.839Z,3.60
2023-03-24T21:32:57.434Z,3.80
2023-03-24T21:35:25.588Z,3.50
2023-03-24T21:37:53.995Z,3.30
2023-03-24T21:40:25.528Z,3.70
2023-03-24T21:42:54.056Z,3.70
2023-03-24T21:45:23.530Z,3.50
2023-03-24T21:47:54.727Z,3.60
2023-03-24T21:50:23.521Z,4.40
2023-03-24T21:52:55.573Z,2.90
2023-03-24T21:55:23.353Z,4.00
2023-03-24T21:57:51.985Z,4.50
2023-03-24T22:00:24.499Z,5.80
2023-03-24T22:02:54.286Z,5.10
2023-03-24T22:05:26.215Z,6.20
2023-03-24T22:07:54.081Z,8.20
2023-03-24T22:10:29.816Z,7.50
2023-03-24T22:12:57.607Z,6.60
2023-03-24T22:15:25.658Z,6.00
2023-03-24T22:17:53.518Z,6.90
2023-03-24T22:20:21.414Z,5.70
2023-03-24T22:22:49.860Z,5.20
2023-03-24T22:25:18.943Z,6.10
2023-03-24T22:27:50.621Z,6.30
2023-03-24T22:30:19.943Z,5.30
2023-03-24T22:32:48.026Z,5.10
2023-03-24T22:35:23.322Z,5.30
2023-03-24T22:37:51.604Z,4.30
2023-03-24T22:40:19.501Z,5.90
2023-03-24T22:42:47.275Z,4.40
2023-03-24T22:45:15.454Z,4.70
2023-03-24T22:47:43.303Z,4.10
2023-03-24T22:50:11.633Z,3.90
2023-03-24T22:52:39.387Z,4.40
2023-03-24T22:55:10.122Z,4.20
2023-03-24T22:57:38.088Z,4.10
2023-03-24T23:00:08.291Z,4.40
2023-03-24T23:02:36.275Z,3.40
2023-03-24T23:05:04.565Z,3.80
2023-03-24T23:07:32.674Z,4.20
2023-03-24T23:10:00.435Z,4.10
2023-03-24T23:12:28.202Z,4.40
2023-03-24T23:14:56.050Z,4.60
2023-03-24T23:17:26.658Z,4.80
2023-03-24T23:19:54.449Z,4.00
2023-03-24T23:22:22.879Z,4.30
2023-03-24T23:25:00.414Z,4.90
2023-03-24T23:27:35.286Z,4.50
2023-03-24T23:30:10.138Z,4.90
2023-03-24T23:32:39.726Z,4.30
2023-03-24T23:35:09.527Z,4.70
2023-03-24T23:37:39.188Z,4.80
2023-03-24T23:40:15.777Z,4.90
2023-03-24T23:42:47.124Z,4.80
2023-03-24T23:45:19.379Z,5.10
2023-03-24T23:47:50.372Z,5.20
2023-03-24T23:50:20.478Z,5.50
2023-03-24T23:52:48.619Z,5.10
2023-03-24T23:55:18.454Z,4.70
2023-03-24T23:57:46.888Z,4.80
